sensor_id;sensor_type;location;lat;lon;timestamp;pressure;altitude;pressure_sealevel;temperature;humidity
4022;BME280;2025;48.260;16.432;2023-04-15T00:00:39;98484.09;;;2.54;93.02
4022;BME280;2025;48.260;16.432;2023-04-15T00:03:05;98482.91;;;2.48;92.48
4022;BME280;2025;48.260;16.432;2023-04-15T00:05:33;98480.19;;;2.50;92.66
4022;BME280;2025;48.260;16.432;2023-04-15T00:07:59;98475.94;;;2.49;92.99
4022;BME280;2025;48.260;16.432;2023-04-15T00:10:27;98480.84;;;2.52;92.49
4022;BME280;2025;48.260;16.432;2023-04-15T00:12:55;98474.00;;;2.51;93.08
4022;BME280;2025;48.260;16.432;2023-04-15T00:15:22;98472.75;;;2.55;92.89
4022;BME280;2025;48.260;16.432;2023-04-15T00:17:49;98469.03;;;2.58;92.93
4022;BME280;2025;48.260;16.432;2023-04-15T00:20:17;98477.81;;;2.57;92.87
4022;BME280;2025;48.260;16.432;2023-04-15T00:22:44;98477.81;;;2.57;92.98
4022;BME280;2025;48.260;16.432;2023-04-15T00:25:11;98485.44;;;2.58;93.09
4022;BME280;2025;48.260;16.432;2023-04-15T00:27:39;98480.25;;;2.58;92.90
4022;BME280;2025;48.260;16.432;2023-04-15T00:30:08;98489.75;;;2.67;93.54
4022;BME280;2025;48.260;16.432;2023-04-15T00:32:36;98495.13;;;2.66;92.65
4022;BME280;2025;48.260;16.432;2023-04-15T00:35:03;98499.91;;;2.61;93.03
4022;BME280;2025;48.260;16.432;2023-04-15T00:37:30;98504.59;;;2.57;92.92
4022;BME280;2025;48.260;16.432;2023-04-15T00:39:59;98496.66;;;2.59;93.16
4022;BME280;2025;48.260;16.432;2023-04-15T00:42:27;98497.84;;;2.64;93.26
4022;BME280;2025;48.260;16.432;2023-04-15T00:44:54;98503.28;;;2.71;92.87
4022;BME280;2025;48.260;16.432;2023-04-15T00:47:23;98499.56;;;2.73;93.07
4022;BME280;2025;48.260;16.432;2023-04-15T00:49:50;98505.06;;;2.70;92.55
4022;BME280;2025;48.260;16.432;2023-04-15T00:52:17;98509.72;;;2.67;92.86
4022;BME280;2025;48.260;16.432;2023-04-15T00:54:44;98499.88;;;2.70;92.37
4022;BME280;2025;48.260;16.432;2023-04-15T00:57:11;98505.34;;;2.67;92.48
4022;BME280;2025;48.260;16.432;2023-04-15T00:59:38;98507.81;;;2.69;92.26
4022;BME280;2025;48.260;16.432;2023-04-15T01:02:05;98515.91;;;2.66;92.36
4022;BME280;2025;48.260;16.432;2023-04-15T01:04:35;98514.78;;;2.68;92.49
4022;BME280;2025;48.260;16.432;2023-04-15T01:07:02;98514.47;;;2.71;92.57
4022;BME280;2025;48.260;16.432;2023-04-15T01:09:29;98517.75;;;2.73;92.47
4022;BME280;2025;48.260;16.432;2023-04-15T01:11:56;98526.38;;;2.74;92.42
4022;BME280;2025;48.260;16.432;2023-04-15T01:14:23;98519.53;;;2.73;92.31
4022;BME280;2025;48.260;16.432;2023-04-15T01:16:51;98517.22;;;2.70;92.00
4022;BME280;2025;48.260;16.432;2023-04-15T01:19:18;98519.53;;;2.73;91.85
4022;BME280;2025;48.260;16.432;2023-04-15T01:21:47;98519.25;;;2.76;92.06
4022;BME280;2025;48.260;16.432;2023-04-15T01:24:17;98524.75;;;2.73;91.94
4022;BME280;2025;48.260;16.432;2023-04-15T01:26:46;98528.16;;;2.73;92.15
4022;BME280;2025;48.260;16.432;2023-04-15T01:29:15;98531.56;;;2.74;92.51
4022;BME280;2025;48.260;16.432;2023-04-15T01:31:48;98536.47;;;2.77;92.16
4022;BME280;2025;48.260;16.432;2023-04-15T01:34:16;98532.91;;;2.78;92.25
4022;BME280;2025;48.260;16.432;2023-04-15T01:36:43;98535.50;;;2.78;92.16
4022;BME280;2025;48.260;16.432;2023-04-15T01:39:10;98534.69;;;2.78;92.09
4022;BME280;2025;48.260;16.432;2023-04-15T01:41:38;98533.28;;;2.83;92.34
4022;BME280;2025;48.260;16.432;2023-04-15T01:44:06;98540.84;;;2.77;92.00
4022;BME280;2025;48.260;16.432;2023-04-15T01:46:35;98539.91;;;2.78;91.86
4022;BME280;2025;48.260;16.432;2023-04-15T01:49:02;98545.28;;;2.84;91.96
4022;BME280;2025;48.260;16.432;2023-04-15T01:51:29;98540.25;;;2.83;92.50
4022;BME280;2025;48.260;16.432;2023-04-15T01:53:56;98542.56;;;2.86;92.57
4022;BME280;2025;48.260;16.432;2023-04-15T01:56:23;98544.25;;;2.95;92.57
4022;BME280;2025;48.260;16.432;2023-04-15T01:58:51;98541.66;;;2.95;92.41
4022;BME280;2025;48.260;16.432;2023-04-15T02:01:19;98539.72;;;2.97;92.60
4022;BME280;2025;48.260;16.432;2023-04-15T02:03:46;98546.94;;;3.03;92.41
4022;BME280;2025;48.260;16.432;2023-04-15T02:06:13;98548.88;;;3.01;92.61
4022;BME280;2025;48.260;16.432;2023-04-15T02:08:40;98556.38;;;3.04;92.49
4022;BME280;2025;48.260;16.432;2023-04-15T02:11:07;98555.69;;;3.02;92.84
4022;BME280;2025;48.260;16.432;2023-04-15T02:13:34;98552.94;;;3.04;92.55
4022;BME280;2025;48.260;16.432;2023-04-15T02:16:02;98546.50;;;3.08;92.64
4022;BME280;2025;48.260;16.432;2023-04-15T02:18:30;98551.69;;;3.08;92.40
4022;BME280;2025;48.260;16.432;2023-04-15T02:20:57;98561.66;;;3.12;92.58
4022;BME280;2025;48.260;16.432;2023-04-15T02:23:24;98557.25;;;3.13;92.68
4022;BME280;2025;48.260;16.432;2023-04-15T02:25:51;98556.81;;;3.17;91.97
4022;BME280;2025;48.260;16.432;2023-04-15T02:28:18;98559.75;;;3.23;92.22
4022;BME280;2025;48.260;16.432;2023-04-15T02:30:46;98564.19;;;3.30;91.98
4022;BME280;2025;48.260;16.432;2023-04-15T02:33:15;98559.00;;;3.30;91.66
4022;BME280;2025;48.260;16.432;2023-04-15T02:35:43;98567.00;;;3.37;92.09
4022;BME280;2025;48.260;16.432;2023-04-15T02:38:11;98563.69;;;3.27;92.01
4022;BME280;2025;48.260;16.432;2023-04-15T02:40:38;98563.47;;;3.20;92.13
4022;BME280;2025;48.260;16.432;2023-04-15T02:43:05;98560.56;;;3.23;92.24
4022;BME280;2025;48.260;16.432;2023-04-15T02:45:32;98573.91;;;3.20;92.31
4022;BME280;2025;48.260;16.432;2023-04-15T02:47:59;98567.88;;;3.20;92.86
4022;BME280;2025;48.260;16.432;2023-04-15T02:50:30;98572.09;;;3.21;92.92
4022;BME280;2025;48.260;16.432;2023-04-15T02:52:58;98574.56;;;3.22;92.71
4022;BME280;2025;48.260;16.432;2023-04-15T02:55:27;98572.47;;;3.26;92.62
4022;BME280;2025;48.260;16.432;2023-04-15T02:57:54;98568.69;;;3.20;92.28
4022;BME280;2025;48.260;16.432;2023-04-15T03:00:23;98569.94;;;3.16;92.46
4022;BME280;2025;48.260;16.432;2023-04-15T03:02:50;98567.34;;;3.16;92.72
4022;BME280;2025;48.260;16.432;2023-04-15T03:05:21;98573.09;;;3.20;92.61
4022;BME280;2025;48.260;16.432;2023-04-15T03:07:49;98581.69;;;3.20;92.26
4022;BME280;2025;48.260;16.432;2023-04-15T03:10:18;98567.56;;;3.23;92.58
4022;BME280;2025;48.260;16.432;2023-04-15T03:12:45;98585.63;;;3.24;92.36
4022;BME280;2025;48.260;16.432;2023-04-15T03:15:12;98574.25;;;3.25;92.23
4022;BME280;2025;48.260;16.432;2023-04-15T03:17:40;98579.16;;;3.28;92.82
4022;BME280;2025;48.260;16.432;2023-04-15T03:20:07;98582.41;;;3.30;92.88
4022;BME280;2025;48.260;16.432;2023-04-15T03:22:34;98579.53;;;3.33;92.40
4022;BME280;2025;48.260;16.432;2023-04-15T03:25:01;98576.53;;;3.28;92.91
4022;BME280;2025;48.260;16.432;2023-04-15T03:27:30;98580.13;;;3.27;92.25
4022;BME280;2025;48.260;16.432;2023-04-15T03:29:56;98573.28;;;3.26;92.46
4022;BME280;2025;48.260;16.432;2023-04-15T03:32:23;98581.59;;;3.30;92.76
4022;BME280;2025;48.260;16.432;2023-04-15T03:34:51;98589.09;;;3.33;92.76
4022;BME280;2025;48.260;16.432;2023-04-15T03:37:18;98591.25;;;3.37;92.68
4022;BME280;2025;48.260;16.432;2023-04-15T03:39:45;98584.72;;;3.33;92.75
4022;BME280;2025;48.260;16.432;2023-04-15T03:42:12;98593.19;;;3.35;93.49
4022;BME280;2025;48.260;16.432;2023-04-15T03:44:41;98586.00;;;3.29;93.24
4022;BME280;2025;48.260;16.432;2023-04-15T03:47:07;98584.09;;;3.40;93.11
4022;BME280;2025;48.260;16.432;2023-04-15T03:49:35;98594.84;;;3.36;93.25
4022;BME280;2025;48.260;16.432;2023-04-15T03:52:02;98592.22;;;3.36;93.50
4022;BME280;2025;48.260;16.432;2023-04-15T03:54:29;98590.88;;;3.32;93.46
4022;BME280;2025;48.260;16.432;2023-04-15T03:56:56;98597.75;;;3.33;93.71
4022;BME280;2025;48.260;16.432;2023-04-15T03:59:23;98599.38;;;3.34;93.74
4022;BME280;2025;48.260;16.432;2023-04-15T04:01:51;98604.13;;;3.39;93.67
4022;BME280;2025;48.260;16.432;2023-04-15T04:04:18;98607.41;;;3.41;93.91
4022;BME280;2025;48.260;16.432;2023-04-15T04:06:45;98607.09;;;3.44;93.55
4022;BME280;2025;48.260;16.432;2023-04-15T04:09:12;98612.28;;;3.44;93.46
4022;BME280;2025;48.260;16.432;2023-04-15T04:11:39;98612.50;;;3.51;93.56
4022;BME280;2025;48.260;16.432;2023-04-15T04:14:06;98611.25;;;3.55;93.87
4022;BME280;2025;48.260;16.432;2023-04-15T04:16:33;98615.66;;;3.63;93.38
4022;BME280;2025;48.260;16.432;2023-04-15T04:19:01;98626.00;;;3.72;93.60
4022;BME280;2025;48.260;16.432;2023-04-15T04:21:28;98620.50;;;3.75;93.20
4022;BME280;2025;48.260;16.432;2023-04-15T04:23:55;98620.72;;;3.90;92.91
4022;BME280;2025;48.260;16.432;2023-04-15T04:26:23;98620.72;;;3.90;92.34
4022;BME280;2025;48.260;16.432;2023-04-15T04:28:50;98622.53;;;3.90;92.28
4022;BME280;2025;48.260;16.432;2023-04-15T04:31:17;98627.00;;;3.79;92.25
4022;BME280;2025;48.260;16.432;2023-04-15T04:33:44;98631.47;;;3.87;92.74
4022;BME280;2025;48.260;16.432;2023-04-15T04:36:13;98638.81;;;3.92;92.37
4022;BME280;2025;48.260;16.432;2023-04-15T04:38:40;98640.41;;;3.85;92.45
4022;BME280;2025;48.260;16.432;2023-04-15T04:41:06;98644.78;;;3.84;92.60
4022;BME280;2025;48.260;16.432;2023-04-15T04:43:33;98649.53;;;3.89;92.47
4022;BME280;2025;48.260;16.432;2023-04-15T04:46:01;98652.66;;;3.92;92.69
4022;BME280;2025;48.260;16.432;2023-04-15T04:48:27;98641.91;;;3.95;92.73
4022;BME280;2025;48.260;16.432;2023-04-15T04:50:54;98647.28;;;3.94;92.70
4022;BME280;2025;48.260;16.432;2023-04-15T04:53:23;98652.19;;;3.97;92.89
4022;BME280;2025;48.260;16.432;2023-04-15T04:55:50;98650.50;;;4.14;92.73
4022;BME280;2025;48.260;16.432;2023-04-15T04:58:17;98649.25;;;4.26;91.79
4022;BME280;2025;48.260;16.432;2023-04-15T05:00:44;98649.03;;;4.19;91.93
4022;BME280;2025;48.260;16.432;2023-04-15T05:03:11;98647.69;;;4.07;92.30
4022;BME280;2025;48.260;16.432;2023-04-15T05:05:38;98662.16;;;4.01;92.71
4022;BME280;2025;48.260;16.432;2023-04-15T05:08:05;98653.81;;;3.98;92.85
4022;BME280;2025;48.260;16.432;2023-04-15T05:10:34;98660.50;;;4.00;93.21
4022;BME280;2025;48.260;16.432;2023-04-15T05:13:01;98650.59;;;4.04;93.06
4022;BME280;2025;48.260;16.432;2023-04-15T05:15:27;98650.28;;;4.07;93.19
4022;BME280;2025;48.260;16.432;2023-04-15T05:17:54;98655.50;;;4.07;93.17
4022;BME280;2025;48.260;16.432;2023-04-15T05:20:22;98656.72;;;4.21;93.22
4022;BME280;2025;48.260;16.432;2023-04-15T05:22:49;98654.47;;;4.26;93.04
4022;BME280;2025;48.260;16.432;2023-04-15T05:25:16;98657.38;;;4.23;93.18
4022;BME280;2025;48.260;16.432;2023-04-15T05:27:44;98670.41;;;4.23;92.84
4022;BME280;2025;48.260;16.432;2023-04-15T05:30:11;98661.53;;;4.34;92.82
4022;BME280;2025;48.260;16.432;2023-04-15T05:32:39;98666.72;;;4.34;92.47
4022;BME280;2025;48.260;16.432;2023-04-15T05:35:06;98665.59;;;4.36;92.60
4022;BME280;2025;48.260;16.432;2023-04-15T05:37:33;98670.53;;;4.48;92.28
4022;BME280;2025;48.260;16.432;2023-04-15T05:40:00;98673.91;;;4.40;92.02
4022;BME280;2025;48.260;16.432;2023-04-15T05:42:28;98682.97;;;4.28;91.89
4022;BME280;2025;48.260;16.432;2023-04-15T05:44:57;98679.72;;;4.26;92.03
4022;BME280;2025;48.260;16.432;2023-04-15T05:47:24;98683.66;;;4.30;92.44
4022;BME280;2025;48.260;16.432;2023-04-15T05:49:51;98676.03;;;4.36;92.42
4022;BME280;2025;48.260;16.432;2023-04-15T05:52:20;98677.38;;;4.49;92.25
4022;BME280;2025;48.260;16.432;2023-04-15T05:54:47;98681.31;;;4.53;92.36
4022;BME280;2025;48.260;16.432;2023-04-15T05:57:13;98685.28;;;4.65;92.51
4022;BME280;2025;48.260;16.432;2023-04-15T05:59:40;98682.84;;;4.72;91.81
4022;BME280;2025;48.260;16.432;2023-04-15T06:02:10;98685.94;;;4.75;91.57
4022;BME280;2025;48.260;16.432;2023-04-15T06:04:37;98687.13;;;4.89;91.48
4022;BME280;2025;48.260;16.432;2023-04-15T06:07:04;98686.03;;;5.08;91.11
4022;BME280;2025;48.260;16.432;2023-04-15T06:09:31;98692.09;;;5.17;90.63
4022;BME280;2025;48.260;16.432;2023-04-15T06:11:59;98692.75;;;5.19;90.23
4022;BME280;2025;48.260;16.432;2023-04-15T06:14:26;98697.81;;;5.28;89.72
4022;BME280;2025;48.260;16.432;2023-04-15T06:16:53;98691.78;;;5.20;89.51
4022;BME280;2025;48.260;16.432;2023-04-15T06:19:22;98691.13;;;5.18;89.71
4022;BME280;2025;48.260;16.432;2023-04-15T06:21:49;98694.56;;;5.18;90.22
4022;BME280;2025;48.260;16.432;2023-04-15T06:24:16;98697.69;;;5.46;90.10
4022;BME280;2025;48.260;16.432;2023-04-15T06:26:43;98694.56;;;5.59;90.29
4022;BME280;2025;48.260;16.432;2023-04-15T06:29:10;98700.63;;;5.52;88.52
4022;BME280;2025;48.260;16.432;2023-04-15T06:31:37;98694.09;;;5.64;88.39
4022;BME280;2025;48.260;16.432;2023-04-15T06:34:04;98699.81;;;5.76;88.99
4022;BME280;2025;48.260;16.432;2023-04-15T06:36:32;98704.06;;;5.60;87.74
4022;BME280;2025;48.260;16.432;2023-04-15T06:38:59;98701.09;;;5.47;87.77
4022;BME280;2025;48.260;16.432;2023-04-15T06:41:27;98705.50;;;5.38;87.82
4022;BME280;2025;48.260;16.432;2023-04-15T06:43:54;98701.91;;;5.47;88.95
4022;BME280;2025;48.260;16.432;2023-04-15T06:46:21;98707.81;;;5.41;88.63
4022;BME280;2025;48.260;16.432;2023-04-15T06:48:48;98703.06;;;5.61;89.41
4022;BME280;2025;48.260;16.432;2023-04-15T06:51:15;98702.09;;;5.79;89.44
4022;BME280;2025;48.260;16.432;2023-04-15T06:53:43;98709.13;;;5.86;89.28
4022;BME280;2025;48.260;16.432;2023-04-15T06:56:10;98710.78;;;5.96;87.84
4022;BME280;2025;48.260;16.432;2023-04-15T06:58:37;98711.06;;;5.84;86.79
4022;BME280;2025;48.260;16.432;2023-04-15T07:01:05;98718.91;;;5.68;86.82
4022;BME280;2025;48.260;16.432;2023-04-15T07:03:32;98723.31;;;5.84;88.08
4022;BME280;2025;48.260;16.432;2023-04-15T07:05:59;98721.53;;;6.01;88.03
4022;BME280;2025;48.260;16.432;2023-04-15T07:08:30;98720.88;;;5.90;86.26
4022;BME280;2025;48.260;16.432;2023-04-15T07:10:59;98722.69;;;5.90;86.43
4022;BME280;2025;48.260;16.432;2023-04-15T07:13:26;98723.19;;;6.02;85.78
4022;BME280;2025;48.260;16.432;2023-04-15T07:15:53;98726.28;;;6.05;84.84
4022;BME280;2025;48.260;16.432;2023-04-15T07:18:20;98728.38;;;5.94;84.41
4022;BME280;2025;48.260;16.432;2023-04-15T07:20:47;98733.31;;;5.97;85.68
4022;BME280;2025;48.260;16.432;2023-04-15T07:23:14;98733.00;;;6.00;84.92
4022;BME280;2025;48.260;16.432;2023-04-15T07:25:42;98737.06;;;6.02;85.45
4022;BME280;2025;48.260;16.432;2023-04-15T07:28:10;98732.47;;;6.21;86.35
4022;BME280;2025;48.260;16.432;2023-04-15T07:30:37;98736.69;;;6.38;85.63
4022;BME280;2025;48.260;16.432;2023-04-15T07:33:04;98734.41;;;6.35;84.92
4022;BME280;2025;48.260;16.432;2023-04-15T07:35:31;98739.94;;;6.40;83.54
4022;BME280;2025;48.260;16.432;2023-04-15T07:37:58;98729.69;;;6.30;82.47
4022;BME280;2025;48.260;16.432;2023-04-15T07:40:25;98739.66;;;6.19;82.20
4022;BME280;2025;48.260;16.432;2023-04-15T07:42:52;98734.56;;;6.33;83.53
4022;BME280;2025;48.260;16.432;2023-04-15T07:45:21;98747.13;;;6.38;82.98
4022;BME280;2025;48.260;16.432;2023-04-15T07:47:48;98746.81;;;6.41;84.20
4022;BME280;2025;48.260;16.432;2023-04-15T07:50:15;98752.19;;;6.48;83.22
4022;BME280;2025;48.260;16.432;2023-04-15T07:52:44;98750.38;;;6.57;84.50
4022;BME280;2025;48.260;16.432;2023-04-15T07:55:11;98754.63;;;6.49;81.74
4022;BME280;2025;48.260;16.432;2023-04-15T07:57:38;98761.06;;;6.30;80.67
4022;BME280;2025;48.260;16.432;2023-04-15T08:00:06;98762.84;;;6.22;81.69
4022;BME280;2025;48.260;16.432;2023-04-15T08:02:35;98753.06;;;6.32;83.37
4022;BME280;2025;48.260;16.432;2023-04-15T08:05:02;98754.19;;;6.38;83.78
4022;BME280;2025;48.260;16.432;2023-04-15T08:07:29;98758.41;;;6.55;83.14
4022;BME280;2025;48.260;16.432;2023-04-15T08:09:57;98762.44;;;6.74;83.51
4022;BME280;2025;48.260;16.432;2023-04-15T08:12:23;98764.09;;;6.59;81.29
4022;BME280;2025;48.260;16.432;2023-04-15T08:14:50;98761.13;;;6.70;83.71
4022;BME280;2025;48.260;16.432;2023-04-15T08:17:17;98760.59;;;6.83;81.56
4022;BME280;2025;48.260;16.432;2023-04-15T08:19:46;98762.22;;;6.84;78.68
4022;BME280;2025;48.260;16.432;2023-04-15T08:22:14;98756.38;;;7.13;81.16
4022;BME280;2025;48.260;16.432;2023-04-15T08:24:41;98766.66;;;7.46;83.39
4022;BME280;2025;48.260;16.432;2023-04-15T08:27:08;98759.00;;;7.44;79.25
4022;BME280;2025;48.260;16.432;2023-04-15T08:29:35;98770.41;;;7.51;79.84
4022;BME280;2025;48.260;16.432;2023-04-15T08:32:02;98770.03;;;7.31;78.32
4022;BME280;2025;48.260;16.432;2023-04-15T08:34:29;98766.72;;;7.06;79.13
4022;BME280;2025;48.260;16.432;2023-04-15T08:36:57;98770.91;;;7.15;79.20
4022;BME280;2025;48.260;16.432;2023-04-15T08:39:24;98772.13;;;7.36;78.86
4022;BME280;2025;48.260;16.432;2023-04-15T08:41:59;98774.41;;;7.39;75.74
4022;BME280;2025;48.260;16.432;2023-04-15T08:44:28;98779.59;;;7.16;77.42
4022;BME280;2025;48.260;16.432;2023-04-15T08:46:56;98786.91;;;6.89;76.39
4022;BME280;2025;48.260;16.432;2023-04-15T08:49:28;98786.78;;;6.74;75.63
4022;BME280;2025;48.260;16.432;2023-04-15T08:51:58;98787.41;;;6.85;75.51
4022;BME280;2025;48.260;16.432;2023-04-15T08:54:26;98790.63;;;7.03;76.83
4022;BME280;2025;48.260;16.432;2023-04-15T08:56:53;98790.09;;;7.16;77.52
4022;BME280;2025;48.260;16.432;2023-04-15T08:59:21;98791.47;;;7.35;73.86
4022;BME280;2025;48.260;16.432;2023-04-15T09:01:48;98787.94;;;7.51;75.91
4022;BME280;2025;48.260;16.432;2023-04-15T09:04:16;98790.81;;;7.33;73.58
4022;BME280;2025;48.260;16.432;2023-04-15T09:06:44;98802.09;;;7.02;75.00
4022;BME280;2025;48.260;16.432;2023-04-15T09:09:12;98804.75;;;6.86;78.12
4022;BME280;2025;48.260;16.432;2023-04-15T09:11:39;98811.19;;;6.59;77.39
4022;BME280;2025;48.260;16.432;2023-04-15T09:14:07;98807.75;;;6.50;80.06
4022;BME280;2025;48.260;16.432;2023-04-15T09:16:58;98813.97;;;6.57;80.67
4022;BME280;2025;48.260;16.432;2023-04-15T09:19:25;98814.28;;;6.70;80.85
4022;BME280;2025;48.260;16.432;2023-04-15T09:21:54;98812.63;;;6.78;80.32
4022;BME280;2025;48.260;16.432;2023-04-15T09:24:24;98816.72;;;6.72;77.82
4022;BME280;2025;48.260;16.432;2023-04-15T09:26:53;98815.59;;;6.66;78.27
4022;BME280;2025;48.260;16.432;2023-04-15T09:29:24;98821.31;;;6.62;78.21
4022;BME280;2025;48.260;16.432;2023-04-15T09:31:51;98829.38;;;6.44;77.12
4022;BME280;2025;48.260;16.432;2023-04-15T09:34:18;98822.81;;;6.40;79.08
4022;BME280;2025;48.260;16.432;2023-04-15T09:36:52;98828.03;;;6.48;78.14
4022;BME280;2025;48.260;16.432;2023-04-15T09:39:20;98824.47;;;6.49;78.80
4022;BME280;2025;48.260;16.432;2023-04-15T09:42:03;98830.34;;;6.43;76.09
4022;BME280;2025;48.260;16.432;2023-04-15T09:44:31;98835.72;;;6.49;76.08
4022;BME280;2025;48.260;16.432;2023-04-15T09:46:58;98840.47;;;6.54;77.10
4022;BME280;2025;48.260;16.432;2023-04-15T09:49:25;98836.50;;;6.66;79.85
4022;BME280;2025;48.260;16.432;2023-04-15T09:51:57;98843.53;;;6.82;78.81
4022;BME280;2025;48.260;16.432;2023-04-15T09:54:32;98835.81;;;6.97;77.73
4022;BME280;2025;48.260;16.432;2023-04-15T09:57:06;98837.28;;;7.00;77.61
4022;BME280;2025;48.260;16.432;2023-04-15T09:59:34;98840.41;;;6.95;77.53
4022;BME280;2025;48.260;16.432;2023-04-15T10:02:03;98846.31;;;6.81;74.71
4022;BME280;2025;48.260;16.432;2023-04-15T10:04:32;98847.44;;;6.86;77.31
4022;BME280;2025;48.260;16.432;2023-04-15T10:07:02;98856.94;;;6.79;80.14
4022;BME280;2025;48.260;16.432;2023-04-15T10:09:30;98851.09;;;6.52;79.18
4022;BME280;2025;48.260;16.432;2023-04-15T10:11:59;98858.78;;;6.38;80.41
4022;BME280;2025;48.260;16.432;2023-04-15T10:14:31;98857.31;;;6.35;81.75
4022;BME280;2025;48.260;16.432;2023-04-15T10:17:00;98861.91;;;6.41;82.63
4022;BME280;2025;48.260;16.432;2023-04-15T10:19:30;98863.03;;;6.55;81.39
4022;BME280;2025;48.260;16.432;2023-04-15T10:21:59;98859.75;;;6.45;79.63
4022;BME280;2025;48.260;16.432;2023-04-15T10:24:26;98865.00;;;6.45;80.25
4022;BME280;2025;48.260;16.432;2023-04-15T10:26:53;98870.22;;;6.45;79.92
4022;BME280;2025;48.260;16.432;2023-04-15T10:29:22;98869.59;;;6.35;78.60
4022;BME280;2025;48.260;16.432;2023-04-15T10:31:53;98874.00;;;6.34;80.05
4022;BME280;2025;48.260;16.432;2023-04-15T10:34:22;98867.63;;;6.37;82.46
4022;BME280;2025;48.260;16.432;2023-04-15T10:36:49;98871.38;;;6.42;79.83
4022;BME280;2025;48.260;16.432;2023-04-15T10:39:42;98878.06;;;6.45;79.60
4022;BME280;2025;48.260;16.432;2023-04-15T10:42:10;98879.22;;;6.50;81.78
4022;BME280;2025;48.260;16.432;2023-04-15T10:44:38;98879.22;;;6.50;81.63
4022;BME280;2025;48.260;16.432;2023-04-15T10:47:13;98881.34;;;6.47;80.03
4022;BME280;2025;48.260;16.432;2023-04-15T10:49:47;98875.59;;;6.43;77.62
4022;BME280;2025;48.260;16.432;2023-04-15T10:52:16;98882.31;;;6.38;79.57
4022;BME280;2025;48.260;16.432;2023-04-15T10:54:43;98885.59;;;6.40;81.84
4022;BME280;2025;48.260;16.432;2023-04-15T10:57:15;98883.97;;;6.55;80.95
4022;BME280;2025;48.260;16.432;2023-04-15T11:00:02;98879.72;;;6.62;79.75
4022;BME280;2025;48.260;16.432;2023-04-15T11:02:51;98886.59;;;6.55;78.25
4022;BME280;2025;48.260;16.432;2023-04-15T11:05:19;98889.50;;;6.52;79.56
4022;BME280;2025;48.260;16.432;2023-04-15T11:07:49;98893.13;;;6.51;79.72
4022;BME280;2025;48.260;16.432;2023-04-15T11:10:50;98893.44;;;6.56;78.79
4022;BME280;2025;48.260;16.432;2023-04-15T11:13:20;98902.25;;;6.63;80.01
4022;BME280;2025;48.260;16.432;2023-04-15T11:15:48;98902.44;;;6.70;79.74
4022;BME280;2025;48.260;16.432;2023-04-15T11:18:18;98904.72;;;6.81;80.89
4022;BME280;2025;48.260;16.432;2023-04-15T11:20:47;98905.69;;;6.80;77.92
4022;BME280;2025;48.260;16.432;2023-04-15T11:23:16;98907.50;;;6.88;79.67
4022;BME280;2025;48.260;16.432;2023-04-15T11:25:44;98897.81;;;6.80;79.68
4022;BME280;2025;48.260;16.432;2023-04-15T11:28:11;98904.72;;;6.81;78.69
4022;BME280;2025;48.260;16.432;2023-04-15T11:30:39;98902.78;;;6.67;77.57
4022;BME280;2025;48.260;16.432;2023-04-15T11:33:07;98906.19;;;6.59;79.44
4022;BME280;2025;48.260;16.432;2023-04-15T11:35:36;98906.03;;;6.61;79.89
4022;BME280;2025;48.260;16.432;2023-04-15T11:38:08;98914.88;;;6.60;81.38
4022;BME280;2025;48.260;16.432;2023-04-15T11:40:36;98912.75;;;6.55;80.56
4022;BME280;2025;48.260;16.432;2023-04-15T11:43:04;98912.25;;;6.51;80.19
4022;BME280;2025;48.260;16.432;2023-04-15T11:45:31;98923.19;;;6.47;81.34
4022;BME280;2025;48.260;16.432;2023-04-15T11:48:09;98923.84;;;6.41;82.17
4022;BME280;2025;48.260;16.432;2023-04-15T11:50:39;98917.78;;;6.40;82.10
4022;BME280;2025;48.260;16.432;2023-04-15T11:53:07;98924.19;;;6.46;83.37
4022;BME280;2025;48.260;16.432;2023-04-15T11:55:41;98927.44;;;6.64;83.33
4022;BME280;2025;48.260;16.432;2023-04-15T11:58:10;98924.50;;;6.67;82.27
4022;BME280;2025;48.260;16.432;2023-04-15T12:00:38;98918.63;;;6.65;81.43
4022;BME280;2025;48.260;16.432;2023-04-15T12:03:21;98920.25;;;6.66;80.54
4022;BME280;2025;48.260;16.432;2023-04-15T12:06:12;98929.25;;;6.56;79.96
4022;BME280;2025;48.260;16.432;2023-04-15T12:08:48;98944.78;;;6.49;81.41
4022;BME280;2025;48.260;16.432;2023-04-15T12:11:15;98936.59;;;6.36;80.97
4022;BME280;2025;48.260;16.432;2023-04-15T12:13:43;98934.28;;;6.16;81.69
4022;BME280;2025;48.260;16.432;2023-04-15T12:16:10;98940.16;;;6.10;80.63
4022;BME280;2025;48.260;16.432;2023-04-15T12:18:37;98945.06;;;6.13;82.10
4022;BME280;2025;48.260;16.432;2023-04-15T12:21:08;98942.97;;;6.33;82.74
4022;BME280;2025;48.260;16.432;2023-04-15T12:23:37;98940.38;;;6.49;79.77
4022;BME280;2025;48.260;16.432;2023-04-15T12:26:04;98936.91;;;6.57;78.20
4022;BME280;2025;48.260;16.432;2023-04-15T12:28:33;98938.41;;;6.76;80.37
4022;BME280;2025;48.260;16.432;2023-04-15T12:31:06;98939.69;;;6.96;79.25
4022;BME280;2025;48.260;16.432;2023-04-15T12:33:33;98938.22;;;7.02;78.44
4022;BME280;2025;48.260;16.432;2023-04-15T12:36:00;98949.00;;;7.07;75.90
4022;BME280;2025;48.260;16.432;2023-04-15T12:38:27;98951.97;;;6.88;75.55
4022;BME280;2025;48.260;16.432;2023-04-15T12:40:56;98946.09;;;6.78;76.21
4022;BME280;2025;48.260;16.432;2023-04-15T12:43:24;98949.84;;;6.91;76.14
4022;BME280;2025;48.260;16.432;2023-04-15T12:45:51;98951.81;;;6.81;74.88
4022;BME280;2025;48.260;16.432;2023-04-15T12:48:18;98951.47;;;6.84;75.90
4022;BME280;2025;48.260;16.432;2023-04-15T12:50:45;98950.00;;;6.73;75.56
4022;BME280;2025;48.260;16.432;2023-04-15T12:53:12;98954.91;;;6.85;77.35
4022;BME280;2025;48.260;16.432;2023-04-15T12:55:39;98962.13;;;6.91;75.50
4022;BME280;2025;48.260;16.432;2023-04-15T12:58:07;98969.47;;;6.95;76.36
4022;BME280;2025;48.260;16.432;2023-04-15T13:00:36;98965.38;;;6.85;75.58
4022;BME280;2025;48.260;16.432;2023-04-15T13:03:03;98968.31;;;6.98;79.53
4022;BME280;2025;48.260;16.432;2023-04-15T13:05:30;98970.78;;;7.00;76.32
4022;BME280;2025;48.260;16.432;2023-04-15T13:07:57;98977.19;;;6.97;74.97
4022;BME280;2025;48.260;16.432;2023-04-15T13:10:24;98975.84;;;7.01;74.73
4022;BME280;2025;48.260;16.432;2023-04-15T13:12:51;98984.34;;;7.20;75.67
4022;BME280;2025;48.260;16.432;2023-04-15T13:15:19;98992.66;;;7.39;74.14
4022;BME280;2025;48.260;16.432;2023-04-15T13:17:47;98986.22;;;7.58;73.62
4022;BME280;2025;48.260;16.432;2023-04-15T13:20:14;98989.06;;;7.80;74.83
4022;BME280;2025;48.260;16.432;2023-04-15T13:22:42;98979.09;;;8.15;72.42
4022;BME280;2025;48.260;16.432;2023-04-15T13:25:09;98979.44;;;8.43;70.37
4022;BME280;2025;48.260;16.432;2023-04-15T13:27:36;98992.03;;;8.94;73.55